Time;durP1;ratioP1;P1;durP2;ratioP2;P2;SDS_P1;SDS_P2;PMS_P1;PMS_P2;Temp;Humidity;BMP_temperature;BMP_pressure;BME280_temperature;BME280_humidity;BME280_pressure;Samples;Min_cycle;Max_cycle;Signal;HPM_P1;HPM_P2
2021/06/29 00:02:11;;;;;;;12.10;2.33;;;;;;;;;;5068186;28;20151;-35
2021/06/29 00:04:39;;;;;;;9.70;2.42;;;;;;;;;;5058773;28;20028;-35
2021/06/29 00:07:06;;;;;;;12.88;2.78;;;;;;;;;;5055900;28;20031;-35
2021/06/29 00:09:34;;;;;;;7.60;2.28;;;;;;;;;;5065011;28;20028;-38
2021/06/29 00:12:02;;;;;;;13.65;3.15;;;;;;;;;;5080552;28;20024;-35
2021/06/29 00:14:29;;;;;;;6.97;2.15;;;;;;;;;;5088984;28;20059;-38
2021/06/29 00:16:56;;;;;;;9.65;2.17;;;;;;;;;;5092628;28;20022;-43
2021/06/29 00:19:23;;;;;;;7.72;2.13;;;;;;;;;;5076890;28;20182;-35
2021/06/29 00:21:51;;;;;;;10.40;2.53;;;;;;;;;;5074152;28;20110;-31
2021/06/29 00:24:18;;;;;;;10.27;2.40;;;;;;;;;;5072494;28;20159;-33
2021/06/29 00:26:45;;;;;;;9.32;2.50;;;;;;;;;;5075531;28;20020;-45
2021/06/29 00:29:12;;;;;;;13.60;3.20;;;;;;;;;;5083220;28;20056;-33
2021/06/29 00:31:39;;;;;;;9.60;3.15;;;;;;;;;;5086695;28;20364;-39
2021/06/29 00:34:06;;;;;;;11.73;3.10;;;;;;;;;;5079645;28;20059;-39
2021/06/29 00:36:34;;;;;;;14.20;4.30;;;;;;;;;;5092302;28;20028;-40
2021/06/29 00:39:01;;;;;;;17.10;4.53;;;;;;;;;;5077985;28;20024;-43
2021/06/29 00:41:28;;;;;;;19.70;6.32;;;;;;;;;;5080058;28;20024;-43
2021/06/29 00:43:56;;;;;;;18.55;5.38;;;;;;;;;;5085815;28;20093;-39
2021/06/29 00:46:23;;;;;;;26.02;7.40;;;;;;;;;;5083480;28;20134;-38
2021/06/29 00:48:50;;;;;;;25.70;8.45;;;;;;;;;;5068802;28;20024;-48
2021/06/29 00:51:18;;;;;;;26.20;8.13;;;;;;;;;;5073335;28;20119;-44
2021/06/29 00:53:46;;;;;;;29.92;8.98;;;;;;;;;;5072522;28;20070;-46
2021/06/29 00:56:14;;;;;;;24.27;8.27;;;;;;;;;;5080250;28;20012;-42
2021/06/29 00:58:49;;;;;;;24.77;8.95;;;;;;;;;;5091527;28;20034;-40
2021/06/29 01:01:16;;;;;;;28.83;9.13;;;;;;;;;;5092020;28;20089;-38
2021/06/29 01:03:43;;;;;;;25.63;8.38;;;;;;;;;;5076307;28;20032;-35
2021/06/29 01:06:11;;;;;;;28.80;9.57;;;;;;;;;;5086113;28;20031;-46
2021/06/29 01:08:38;;;;;;;25.45;9.52;;;;;;;;;;5076208;28;20028;-45
2021/06/29 01:11:05;;;;;;;25.85;8.88;;;;;;;;;;5085975;28;20028;-42
2021/06/29 01:13:37;;;;;;;26.10;8.55;;;;;;;;;;5080065;28;20382;-39
2021/06/29 01:16:05;;;;;;;27.45;8.73;;;;;;;;;;5083368;28;20024;-44
2021/06/29 01:18:33;;;;;;;25.70;9.15;;;;;;;;;;5081913;28;20013;-34
2021/06/29 01:21:00;;;;;;;26.15;8.23;;;;;;;;;;5061481;28;20036;-45
2021/06/29 01:23:29;;;;;;;28.00;8.63;;;;;;;;;;5073559;28;20024;-42
2021/06/29 01:26:11;;;;;;;25.20;7.75;;;;;;;;;;5072583;28;20020;-46
2021/06/29 01:31:18;;;;;;;21.88;8.15;;;;;;;;;;5071623;28;20070;-40
2021/06/29 01:33:45;;;;;;;25.77;7.47;;;;;;;;;;5073204;28;20056;-37
2021/06/29 01:36:16;;;;;;;18.08;7.38;;;;;;;;;;5081712;28;20019;-35
2021/06/29 01:38:44;;;;;;;21.52;7.97;;;;;;;;;;5077085;28;20016;-41
2021/06/29 01:41:12;;;;;;;23.30;7.40;;;;;;;;;;5046127;28;20037;-48
2021/06/29 01:43:49;;;;;;;21.38;7.80;;;;;;;;;;5059141;28;20056;-47
2021/06/29 01:46:18;;;;;;;24.67;7.93;;;;;;;;;;5091704;28;20051;-41
2021/06/29 01:48:47;;;;;;;21.02;8.20;;;;;;;;;;5076851;28;20483;-34
2021/06/29 01:51:15;;;;;;;24.23;7.25;;;;;;;;;;5070830;28;20024;-48
2021/06/29 01:53:42;;;;;;;25.05;7.82;;;;;;;;;;5074083;28;20442;-35
2021/06/29 01:56:16;;;;;;;19.42;7.07;;;;;;;;;;5065772;28;20017;-35
2021/06/29 01:58:48;;;;;;;19.10;7.05;;;;;;;;;;5073925;28;20028;-30
2021/06/29 02:01:15;;;;;;;17.15;6.35;;;;;;;;;;5052704;28;20047;-39
2021/06/29 02:03:42;;;;;;;23.50;7.00;;;;;;;;;;5065992;28;20075;-44
2021/06/29 02:06:09;;;;;;;20.90;6.63;;;;;;;;;;5058567;28;20027;-46
2021/06/29 02:08:37;;;;;;;22.15;6.70;;;;;;;;;;5064558;28;20028;-42
2021/06/29 02:11:04;;;;;;;20.65;7.03;;;;;;;;;;5062725;28;20103;-49
2021/06/29 02:13:31;;;;;;;26.50;6.95;;;;;;;;;;5064135;28;20076;-44
2021/06/29 02:16:00;;;;;;;16.50;6.55;;;;;;;;;;5057427;28;20104;-35
2021/06/29 02:18:28;;;;;;;23.05;7.18;;;;;;;;;;5050355;28;20028;-34
2021/06/29 02:20:55;;;;;;;21.90;6.45;;;;;;;;;;5050087;28;20032;-34
2021/06/29 02:23:23;;;;;;;19.27;6.80;;;;;;;;;;5049803;28;20021;-34
2021/06/29 02:25:50;;;;;;;19.67;7.10;;;;;;;;;;5049785;28;20531;-33
2021/06/29 02:28:17;;;;;;;17.02;6.47;;;;;;;;;;5059068;28;20059;-35
2021/06/29 02:30:44;;;;;;;15.57;6.07;;;;;;;;;;5054673;28;20480;-32
2021/06/29 02:33:11;;;;;;;17.00;5.68;;;;;;;;;;5070761;28;20067;-33
2021/06/29 02:35:39;;;;;;;16.10;5.90;;;;;;;;;;5059684;28;20024;-38
2021/06/29 02:38:06;;;;;;;16.35;5.95;;;;;;;;;;5069287;28;20027;-34
2021/06/29 02:40:33;;;;;;;18.95;5.68;;;;;;;;;;5075491;28;21046;-42
2021/06/29 02:43:01;;;;;;;19.52;5.85;;;;;;;;;;5068399;28;20071;-35
2021/06/29 02:45:28;;;;;;;12.77;5.35;;;;;;;;;;5070020;28;20032;-35
2021/06/29 02:47:58;;;;;;;15.50;5.40;;;;;;;;;;5070651;28;20024;-33
2021/06/29 02:50:26;;;;;;;16.13;5.20;;;;;;;;;;5068375;28;20029;-34
2021/06/29 02:52:53;;;;;;;17.27;5.13;;;;;;;;;;5070136;28;20025;-32
2021/06/29 02:55:20;;;;;;;14.10;5.22;;;;;;;;;;5070163;28;20027;-37
2021/06/29 02:57:47;;;;;;;12.70;5.60;;;;;;;;;;5070036;28;20028;-33
2021/06/29 03:00:19;;;;;;;14.20;5.97;;;;;;;;;;5069492;28;20139;-32
2021/06/29 03:02:46;;;;;;;18.20;5.55;;;;;;;;;;5069774;28;20016;-35
2021/06/29 03:05:14;;;;;;;15.93;5.18;;;;;;;;;;5070505;28;20017;-36
2021/06/29 03:07:42;;;;;;;13.20;4.70;;;;;;;;;;5069610;28;20069;-36
2021/06/29 03:10:09;;;;;;;14.75;5.20;;;;;;;;;;5068472;28;20061;-33
2021/06/29 03:12:37;;;;;;;12.95;4.97;;;;;;;;;;5070724;28;20099;-35
2021/06/29 03:15:05;;;;;;;12.05;4.65;;;;;;;;;;5070196;28;20070;-35
2021/06/29 03:17:32;;;;;;;8.20;4.50;;;;;;;;;;5069554;28;20039;-32
2021/06/29 03:20:00;;;;;;;10.93;4.95;;;;;;;;;;5070875;28;20036;-36
2021/06/29 03:22:28;;;;;;;12.20;4.50;;;;;;;;;;5070058;28;20020;-34
2021/06/29 03:24:55;;;;;;;18.92;5.00;;;;;;;;;;5070688;28;20039;-35
2021/06/29 03:27:22;;;;;;;14.07;4.80;;;;;;;;;;5069053;28;20472;-35
2021/06/29 03:29:49;;;;;;;13.23;4.25;;;;;;;;;;5071066;28;20100;-39
2021/06/29 03:32:16;;;;;;;13.18;4.40;;;;;;;;;;5068759;28;20044;-36
2021/06/29 03:34:43;;;;;;;13.00;4.40;;;;;;;;;;5070410;28;20439;-38
2021/06/29 03:37:11;;;;;;;12.13;4.50;;;;;;;;;;5068547;28;20087;-37
2021/06/29 03:39:38;;;;;;;9.00;4.68;;;;;;;;;;5069335;28;20506;-35
2021/06/29 03:42:05;;;;;;;12.43;4.75;;;;;;;;;;5070178;28;20112;-34
2021/06/29 03:44:32;;;;;;;10.73;4.47;;;;;;;;;;5071008;28;20414;-36
2021/06/29 03:47:00;;;;;;;9.65;4.05;;;;;;;;;;5073967;28;20024;-36
2021/06/29 03:49:27;;;;;;;9.63;4.50;;;;;;;;;;5072474;28;20031;-33
2021/06/29 03:51:54;;;;;;;13.98;4.78;;;;;;;;;;5074289;28;20383;-35
2021/06/29 03:54:21;;;;;;;11.75;4.43;;;;;;;;;;5072102;28;20100;-35
2021/06/29 03:56:48;;;;;;;9.25;4.25;;;;;;;;;;5074478;28;20021;-36
2021/06/29 03:59:15;;;;;;;9.30;4.47;;;;;;;;;;5074000;28;20017;-34
2021/06/29 04:01:42;;;;;;;8.93;4.03;;;;;;;;;;5073498;28;20466;-36
2021/06/29 04:04:09;;;;;;;8.15;4.00;;;;;;;;;;5074441;28;20078;-31
2021/06/29 04:06:38;;;;;;;10.73;4.15;;;;;;;;;;5073121;28;20028;-34
2021/06/29 04:09:09;;;;;;;9.68;4.72;;;;;;;;;;5073122;28;20484;-36
2021/06/29 04:11:36;;;;;;;12.23;4.20;;;;;;;;;;5072990;28;20391;-33
2021/06/29 04:14:03;;;;;;;10.05;4.05;;;;;;;;;;5074667;28;20166;-33
2021/06/29 04:16:31;;;;;;;14.00;4.45;;;;;;;;;;5072391;28;20013;-33
2021/06/29 04:18:57;;;;;;;8.90;4.50;;;;;;;;;;5073277;28;20028;-34
2021/06/29 04:21:25;;;;;;;9.90;4.63;;;;;;;;;;5073007;28;20052;-35
2021/06/29 04:23:52;;;;;;;7.32;3.95;;;;;;;;;;5074453;28;20021;-33
2021/06/29 04:26:20;;;;;;;10.40;4.72;;;;;;;;;;5073434;28;20510;-36
2021/06/29 04:28:47;;;;;;;8.38;4.40;;;;;;;;;;5074185;28;20028;-35
2021/06/29 04:31:17;;;;;;;11.25;4.13;;;;;;;;;;5072162;28;20031;-35
2021/06/29 04:33:44;;;;;;;9.20;4.10;;;;;;;;;;5073989;28;20048;-40
2021/06/29 04:36:11;;;;;;;10.82;5.03;;;;;;;;;;5054188;28;20075;-38
2021/06/29 04:38:38;;;;;;;11.10;4.32;;;;;;;;;;5072774;28;20048;-33
2021/06/29 04:41:05;;;;;;;8.43;4.45;;;;;;;;;;5071489;28;20143;-35
2021/06/29 04:43:32;;;;;;;9.52;4.60;;;;;;;;;;5073529;28;20353;-34
2021/06/29 04:45:59;;;;;;;10.68;4.70;;;;;;;;;;5072479;28;20035;-38
2021/06/29 04:48:26;;;;;;;9.27;4.53;;;;;;;;;;5072983;28;20028;-36
2021/06/29 04:50:54;;;;;;;9.07;4.72;;;;;;;;;;5073799;28;20028;-36
2021/06/29 04:53:21;;;;;;;11.60;5.20;;;;;;;;;;5071955;28;20098;-36
2021/06/29 04:55:48;;;;;;;10.02;4.95;;;;;;;;;;5073048;28;20739;-34
2021/06/29 04:58:15;;;;;;;9.32;5.10;;;;;;;;;;5071292;28;20021;-36
2021/06/29 05:00:45;;;;;;;10.73;4.93;;;;;;;;;;5072242;28;20071;-35
2021/06/29 05:03:13;;;;;;;8.57;4.75;;;;;;;;;;5073112;28;20017;-33
2021/06/29 05:05:40;;;;;;;10.00;4.88;;;;;;;;;;5072425;28;20028;-40
2021/06/29 05:08:07;;;;;;;11.55;5.38;;;;;;;;;;5072955;28;20016;-34
2021/06/29 05:10:35;;;;;;;13.50;5.30;;;;;;;;;;5072193;28;20067;-35
2021/06/29 05:13:02;;;;;;;12.57;5.45;;;;;;;;;;5072010;28;20389;-34
2021/06/29 05:15:30;;;;;;;8.23;4.68;;;;;;;;;;5073404;28;20021;-34
2021/06/29 05:17:57;;;;;;;9.45;5.15;;;;;;;;;;5072967;28;20024;-35
2021/06/29 05:20:24;;;;;;;10.30;5.40;;;;;;;;;;5070948;28;20543;-35
2021/06/29 05:22:52;;;;;;;11.70;5.50;;;;;;;;;;5073284;28;20549;-33
2021/06/29 05:25:19;;;;;;;10.27;5.38;;;;;;;;;;5070740;28;20036;-36
2021/06/29 05:27:46;;;;;;;12.93;5.95;;;;;;;;;;5072768;28;20017;-35
2021/06/29 05:30:14;;;;;;;10.50;6.03;;;;;;;;;;5072540;28;20510;-35
2021/06/29 05:32:41;;;;;;;9.70;5.10;;;;;;;;;;5072747;28;20017;-34
2021/06/29 05:35:09;;;;;;;11.52;5.63;;;;;;;;;;5072752;28;20357;-35
2021/06/29 05:37:36;;;;;;;11.90;6.40;;;;;;;;;;5072738;28;20380;-31
2021/06/29 05:40:04;;;;;;;10.45;5.57;;;;;;;;;;5072345;28;20028;-34
2021/06/29 05:42:31;;;;;;;10.93;5.45;;;;;;;;;;5072986;28;20024;-36
2021/06/29 05:44:58;;;;;;;12.07;5.45;;;;;;;;;;5072396;28;20016;-36
2021/06/29 05:47:25;;;;;;;10.45;5.70;;;;;;;;;;5072584;28;20380;-35
2021/06/29 05:49:52;;;;;;;9.32;5.30;;;;;;;;;;5072764;28;20024;-34
2021/06/29 05:52:19;;;;;;;11.57;5.60;;;;;;;;;;5072260;28;20012;-36
2021/06/29 05:54:47;;;;;;;12.35;5.70;;;;;;;;;;5072570;28;20023;-34
2021/06/29 05:57:14;;;;;;;10.55;5.30;;;;;;;;;;5070798;28;20028;-35
2021/06/29 05:59:42;;;;;;;9.45;5.90;;;;;;;;;;5071284;28;20052;-35
2021/06/29 06:02:09;;;;;;;11.55;5.78;;;;;;;;;;5070723;28;20388;-32
2021/06/29 06:04:36;;;;;;;9.95;5.38;;;;;;;;;;5072384;28;20024;-36
2021/06/29 06:07:04;;;;;;;9.32;4.97;;;;;;;;;;5070929;28;20113;-34
2021/06/29 06:09:31;;;;;;;9.07;5.22;;;;;;;;;;5072306;28;20021;-36
2021/06/29 06:11:58;;;;;;;8.57;4.90;;;;;;;;;;5071832;28;20044;-33
2021/06/29 06:14:26;;;;;;;9.18;5.30;;;;;;;;;;5071066;28;20051;-33
2021/06/29 06:16:53;;;;;;;9.40;6.13;;;;;;;;;;5071835;28;20012;-35
2021/06/29 06:19:20;;;;;;;9.70;5.63;;;;;;;;;;5070698;28;20036;-36
2021/06/29 06:21:47;;;;;;;10.68;5.57;;;;;;;;;;5071413;28;20024;-36
2021/06/29 06:24:14;;;;;;;9.43;5.38;;;;;;;;;;5070586;28;20082;-35
2021/06/29 06:26:41;;;;;;;10.65;5.00;;;;;;;;;;5070580;28;20479;-37
2021/06/29 06:29:08;;;;;;;9.63;5.30;;;;;;;;;;5071006;28;20103;-34
2021/06/29 06:31:35;;;;;;;10.82;6.05;;;;;;;;;;5071840;28;20028;-34
2021/06/29 06:34:02;;;;;;;11.52;6.13;;;;;;;;;;5071482;28;20150;-36
2021/06/29 06:36:29;;;;;;;11.85;5.38;;;;;;;;;;5071682;28;20533;-31
2021/06/29 06:38:56;;;;;;;10.48;5.70;;;;;;;;;;5052449;28;20025;-42
2021/06/29 06:41:24;;;;;;;8.20;4.78;;;;;;;;;;5071628;28;20035;-41
2021/06/29 06:43:51;;;;;;;10.45;5.38;;;;;;;;;;5071175;28;20034;-35
2021/06/29 06:46:18;;;;;;;10.38;5.45;;;;;;;;;;5071863;28;20094;-34
2021/06/29 06:48:45;;;;;;;10.65;5.43;;;;;;;;;;5070750;28;20071;-34
2021/06/29 06:51:12;;;;;;;9.30;5.28;;;;;;;;;;5071118;28;20024;-35
2021/06/29 06:53:39;;;;;;;9.50;5.07;;;;;;;;;;5072024;28;20048;-33
2021/06/29 06:56:06;;;;;;;9.95;5.45;;;;;;;;;;5071173;28;20020;-35
2021/06/29 06:58:33;;;;;;;9.68;4.93;;;;;;;;;;5070910;28;20055;-30
2021/06/29 07:01:00;;;;;;;8.02;4.80;;;;;;;;;;5071107;28;20032;-41
2021/06/29 07:03:27;;;;;;;8.13;5.05;;;;;;;;;;5071585;28;20017;-41
2021/06/29 07:05:54;;;;;;;9.73;4.57;;;;;;;;;;5070978;28;20054;-33
2021/06/29 07:08:21;;;;;;;8.10;4.30;;;;;;;;;;5070885;28;20112;-39
2021/06/29 07:10:48;;;;;;;7.07;4.70;;;;;;;;;;5070046;28;20025;-35
2021/06/29 07:13:15;;;;;;;8.15;4.22;;;;;;;;;;5071420;28;20048;-34
2021/06/29 07:15:43;;;;;;;9.63;4.97;;;;;;;;;;5071166;28;20072;-32
2021/06/29 07:18:14;;;;;;;8.10;4.75;;;;;;;;;;5071189;28;20028;-36
2021/06/29 07:20:41;;;;;;;7.30;4.55;;;;;;;;;;5075274;28;20554;-39
2021/06/29 07:23:09;;;;;;;8.52;4.60;;;;;;;;;;5057524;28;20424;-38
2021/06/29 07:25:36;;;;;;;11.30;5.25;;;;;;;;;;5075538;28;20024;-34
2021/06/29 07:28:03;;;;;;;7.20;4.57;;;;;;;;;;5074996;28;20021;-35
2021/06/29 07:30:31;;;;;;;7.85;4.60;;;;;;;;;;5075220;28;20017;-35
2021/06/29 07:32:58;;;;;;;8.82;4.25;;;;;;;;;;5074821;28;20040;-31
2021/06/29 07:35:27;;;;;;;6.93;4.30;;;;;;;;;;5075287;28;20032;-34
2021/06/29 07:37:54;;;;;;;7.63;4.45;;;;;;;;;;5074011;28;21004;-34
2021/06/29 07:40:22;;;;;;;8.80;4.32;;;;;;;;;;5074636;28;20111;-34
2021/06/29 07:42:49;;;;;;;8.02;4.72;;;;;;;;;;5074421;28;20435;-32
2021/06/29 07:45:16;;;;;;;7.53;4.20;;;;;;;;;;5075179;28;20058;-33
2021/06/29 07:47:43;;;;;;;7.25;4.13;;;;;;;;;;5074611;28;20024;-32
2021/06/29 07:50:11;;;;;;;9.52;4.50;;;;;;;;;;5074330;28;20032;-34
2021/06/29 07:52:38;;;;;;;9.43;4.28;;;;;;;;;;5074029;28;20039;-34
2021/06/29 07:55:06;;;;;;;7.65;4.15;;;;;;;;;;5075094;28;20017;-33
2021/06/29 07:57:33;;;;;;;8.55;4.35;;;;;;;;;;5074287;28;20099;-33
2021/06/29 08:00:00;;;;;;;7.13;4.05;;;;;;;;;;5073921;28;20715;-33
2021/06/29 08:02:27;;;;;;;6.43;4.00;;;;;;;;;;5074106;28;20026;-33
2021/06/29 08:04:54;;;;;;;7.57;3.90;;;;;;;;;;5073731;28;20047;-31
2021/06/29 08:07:22;;;;;;;8.20;4.15;;;;;;;;;;5074623;28;20056;-31
2021/06/29 08:09:49;;;;;;;8.93;4.43;;;;;;;;;;5073852;28;20096;-32
2021/06/29 08:12:16;;;;;;;6.55;3.88;;;;;;;;;;5074325;28;20032;-32
2021/06/29 08:14:43;;;;;;;6.95;4.20;;;;;;;;;;5074151;28;20641;-33
2021/06/29 08:17:10;;;;;;;7.10;3.88;;;;;;;;;;5074435;28;20025;-31
2021/06/29 08:19:37;;;;;;;5.43;3.47;;;;;;;;;;5073645;28;20036;-33
2021/06/29 08:22:05;;;;;;;6.47;3.92;;;;;;;;;;5074370;28;20031;-35
2021/06/29 08:24:32;;;;;;;6.13;3.60;;;;;;;;;;5073935;28;20048;-33
2021/06/29 08:26:59;;;;;;;5.47;3.33;;;;;;;;;;5074233;28;20020;-34
2021/06/29 08:29:26;;;;;;;7.30;3.33;;;;;;;;;;5073905;28;20024;-35
2021/06/29 08:31:53;;;;;;;4.93;3.15;;;;;;;;;;5072961;28;20071;-33
2021/06/29 08:34:20;;;;;;;5.30;3.22;;;;;;;;;;5055764;28;20041;-39
2021/06/29 08:36:47;;;;;;;4.55;3.10;;;;;;;;;;5073680;28;20025;-34
2021/06/29 08:39:15;;;;;;;5.22;3.00;;;;;;;;;;5074160;28;20016;-39
2021/06/29 08:41:44;;;;;;;5.93;3.13;;;;;;;;;;5073614;28;20017;-31
2021/06/29 08:44:11;;;;;;;7.22;3.30;;;;;;;;;;5074153;28;20028;-35
2021/06/29 08:46:38;;;;;;;5.47;3.25;;;;;;;;;;5073238;28;20035;-40
2021/06/29 08:49:05;;;;;;;4.90;2.92;;;;;;;;;;5074043;28;20017;-33
2021/06/29 08:51:34;;;;;;;6.32;3.03;;;;;;;;;;5073339;28;20395;-34
2021/06/29 08:54:01;;;;;;;5.18;2.95;;;;;;;;;;5073925;28;20032;-33
2021/06/29 08:56:30;;;;;;;5.07;2.90;;;;;;;;;;5073419;28;20021;-34
2021/06/29 08:58:57;;;;;;;5.13;3.08;;;;;;;;;;5073579;28;20036;-34
2021/06/29 09:01:31;;;;;;;5.75;3.22;;;;;;;;;;5073005;28;20468;-34
2021/06/29 09:03:58;;;;;;;3.47;2.72;;;;;;;;;;5073789;28;20029;-32
2021/06/29 09:06:32;;;;;;;4.20;2.50;;;;;;;;;;5073182;28;20443;-31
2021/06/29 09:09:19;;;;;;;3.92;2.28;;;;;;;;;;5073379;28;20027;-34
2021/06/29 09:11:46;;;;;;;3.97;2.53;;;;;;;;;;5072389;28;20025;-30
2021/06/29 09:14:16;;;;;;;4.63;2.75;;;;;;;;;;5073143;28;20027;-33
2021/06/29 09:16:44;;;;;;;5.15;2.47;;;;;;;;;;5093374;28;20536;-34
2021/06/29 09:19:12;;;;;;;5.18;2.72;;;;;;;;;;5092979;28;20078;-36
2021/06/29 09:21:39;;;;;;;4.80;2.17;;;;;;;;;;5093115;28;20060;-35
2021/06/29 09:24:06;;;;;;;5.25;2.42;;;;;;;;;;5093228;28;20028;-36
2021/06/29 09:26:38;;;;;;;4.15;2.40;;;;;;;;;;5093298;28;20494;-35
2021/06/29 09:29:08;;;;;;;;;;;;;;;;;;5093260;28;20016;-34
2021/06/29 09:31:36;;;;;;;4.93;2.08;;;;;;;;;;5093364;28;20000;-34
2021/06/29 09:34:04;;;;;;;4.20;2.17;;;;;;;;;;5092459;28;20044;-35
2021/06/29 09:36:32;;;;;;;3.60;2.25;;;;;;;;;;5093019;28;20025;-34
2021/06/29 09:39:01;;;;;;;5.20;2.60;;;;;;;;;;5092518;28;20016;-41
2021/06/29 09:41:29;;;;;;;4.18;2.45;;;;;;;;;;5092680;28;20028;-34
2021/06/29 09:44:07;;;;;;;3.53;2.15;;;;;;;;;;5091783;28;20098;-37
2021/06/29 09:46:36;;;;;;;5.43;2.40;;;;;;;;;;5093044;28;20107;-35
2021/06/29 09:49:09;;;;;;;5.57;2.50;;;;;;;;;;5092788;28;20077;-32
2021/06/29 09:51:37;;;;;;;4.13;2.03;;;;;;;;;;5092700;28;20020;-33
2021/06/29 09:54:09;;;;;;;3.38;2.00;;;;;;;;;;5074408;28;20379;-35
2021/06/29 09:56:41;;;;;;;3.28;1.75;;;;;;;;;;5092927;28;20023;-33
2021/06/29 09:59:13;;;;;;;2.72;2.10;;;;;;;;;;5092971;28;20056;-32
2021/06/29 10:01:40;;;;;;;3.50;1.80;;;;;;;;;;5092272;28;20075;-33
2021/06/29 10:04:07;;;;;;;3.53;2.05;;;;;;;;;;5092706;28;20032;-35
2021/06/29 10:06:35;;;;;;;3.67;1.92;;;;;;;;;;5091788;28;20036;-35
2021/06/29 10:09:08;;;;;;;2.58;1.80;;;;;;;;;;5077154;28;20094;-31
2021/06/29 10:11:37;;;;;;;3.83;2.00;;;;;;;;;;5071511;28;20502;-34
2021/06/29 10:14:05;;;;;;;3.40;2.15;;;;;;;;;;5066261;28;20033;-34
2021/06/29 10:16:42;;;;;;;4.78;2.00;;;;;;;;;;5067126;28;20017;-32
2021/06/29 10:21:40;;;;;;;3.95;1.90;;;;;;;;;;5091893;28;20038;-34
2021/06/29 10:24:08;;;;;;;4.88;2.10;;;;;;;;;;5076320;28;20017;-32
2021/06/29 10:26:38;;;;;;;2.10;1.50;;;;;;;;;;5071384;28;20029;-39
2021/06/29 10:29:07;;;;;;;3.78;1.70;;;;;;;;;;5070877;28;20413;-42
2021/06/29 10:31:36;;;;;;;2.55;1.40;;;;;;;;;;5070441;28;20078;-32
2021/06/29 10:34:07;;;;;;;3.58;1.60;;;;;;;;;;5070599;28;20048;-31
2021/06/29 10:36:35;;;;;;;3.17;1.83;;;;;;;;;;5087190;28;20551;-32
2021/06/29 10:39:02;;;;;;;4.68;1.50;;;;;;;;;;5084455;28;20035;-32
2021/06/29 10:41:49;;;;;;;2.63;1.70;;;;;;;;;;5080663;28;20059;-32
2021/06/29 10:44:17;;;;;;;4.60;1.73;;;;;;;;;;5080491;28;20016;-33
2021/06/29 10:46:48;;;;;;;7.72;1.88;;;;;;;;;;5082636;28;20027;-34
2021/06/29 10:49:28;;;;;;;3.95;1.25;;;;;;;;;;5088355;28;20097;-42
2021/06/29 10:51:56;;;;;;;4.97;1.60;;;;;;;;;;5071288;28;20020;-33
2021/06/29 10:54:46;;;;;;;4.82;1.27;;;;;;;;;;5076028;28;20077;-36
2021/06/29 10:57:16;;;;;;;3.10;1.40;;;;;;;;;;5063468;28;20036;-32
2021/06/29 10:59:46;;;;;;;4.63;1.40;;;;;;;;;;5070275;28;20109;-36
2021/06/29 11:02:15;;;;;;;3.75;1.35;;;;;;;;;;5072004;28;20655;-34
2021/06/29 11:04:48;;;;;;;2.25;1.23;;;;;;;;;;5078765;28;20056;-34
2021/06/29 11:07:28;;;;;;;4.03;1.40;;;;;;;;;;5085570;28;20027;-34
2021/06/29 11:10:02;;;;;;;2.90;1.40;;;;;;;;;;5075076;28;20048;-34
2021/06/29 11:12:42;;;;;;;12.73;1.52;;;;;;;;;;5072305;28;20078;-35
2021/06/29 11:15:10;;;;;;;9.15;1.70;;;;;;;;;;5078650;28;20028;-38
2021/06/29 11:17:50;;;;;;;10.23;1.55;;;;;;;;;;5079648;28;20106;-35
2021/06/29 11:20:18;;;;;;;4.82;1.50;;;;;;;;;;5086036;28;20061;-37
2021/06/29 11:22:51;;;;;;;8.00;1.10;;;;;;;;;;5091008;28;20016;-35
2021/06/29 11:25:31;;;;;;;6.40;1.52;;;;;;;;;;5090979;28;20062;-42
2021/06/29 11:28:01;;;;;;;9.73;1.90;;;;;;;;;;5091444;28;20096;-37
2021/06/29 11:30:47;;;;;;;8.63;1.38;;;;;;;;;;5090484;28;20066;-36
2021/06/29 11:33:32;;;;;;;5.18;1.15;;;;;;;;;;5091260;28;20048;-39
2021/06/29 11:35:59;;;;;;;6.30;1.45;;;;;;;;;;5090887;28;20095;-44
2021/06/29 11:38:33;;;;;;;8.10;1.70;;;;;;;;;;5073127;28;20028;-37
2021/06/29 11:41:19;;;;;;;23.75;2.70;;;;;;;;;;5090581;28;20040;-36
2021/06/29 11:43:46;;;;;;;9.82;1.88;;;;;;;;;;5085210;28;20016;-37
2021/06/29 11:46:33;;;;;;;10.80;2.00;;;;;;;;;;5069723;28;20021;-36
2021/06/29 11:49:09;;;;;;;16.38;1.98;;;;;;;;;;5067809;28;20107;-36
2021/06/29 11:51:55;;;;;;;34.20;3.15;;;;;;;;;;5066976;28;20470;-38
2021/06/29 11:54:43;;;;;;;34.15;4.53;;;;;;;;;;5061087;28;20357;-36
2021/06/29 11:57:21;;;;;;;21.92;3.72;;;;;;;;;;5071599;28;20031;-39
2021/06/29 11:59:49;;;;;;;40.78;5.07;;;;;;;;;;5066183;28;20171;-38
2021/06/29 12:02:23;;;;;;;31.50;4.72;;;;;;;;;;5069098;28;20029;-52
2021/06/29 12:04:56;;;;;;;35.25;5.72;;;;;;;;;;5066759;28;20027;-54
2021/06/29 12:07:35;;;;;;;40.03;6.65;;;;;;;;;;5068521;28;20020;-42
2021/06/29 12:10:08;;;;;;;33.53;6.40;;;;;;;;;;5060131;28;20175;-53
2021/06/29 12:12:35;;;;;;;37.15;6.75;;;;;;;;;;5068107;28;20020;-53
2021/06/29 12:15:07;;;;;;;30.45;6.53;;;;;;;;;;5073537;28;20400;-41
2021/06/29 12:17:34;;;;;;;35.40;6.55;;;;;;;;;;5071292;28;20025;-41
2021/06/29 12:20:04;;;;;;;30.10;5.95;;;;;;;;;;5072874;28;20036;-42
2021/06/29 12:22:32;;;;;;;44.78;6.97;;;;;;;;;;5072564;28;20494;-36
2021/06/29 12:25:00;;;;;;;32.80;6.05;;;;;;;;;;5073101;28;20515;-44
2021/06/29 12:27:27;;;;;;;35.13;6.15;;;;;;;;;;5073503;28;20016;-43
2021/06/29 12:29:54;;;;;;;35.00;6.53;;;;;;;;;;5070437;28;20028;-45
2021/06/29 12:32:26;;;;;;;26.00;5.93;;;;;;;;;;5071616;28;20032;-47
2021/06/29 12:35:13;;;;;;;32.63;5.75;;;;;;;;;;5072542;28;20036;-42
2021/06/29 12:37:57;;;;;;;31.75;6.20;;;;;;;;;;5073494;28;20016;-54
2021/06/29 12:40:26;;;;;;;30.08;6.47;;;;;;;;;;5072269;28;20075;-35
2021/06/29 12:42:53;;;;;;;32.88;5.40;;;;;;;;;;5210912;22;20126;-60
2021/06/29 12:45:21;;;;;;;36.28;5.97;;;;;;;;;;5051380;28;20025;-41
2021/06/29 12:48:01;;;;;;;29.23;6.63;;;;;;;;;;5052123;28;20013;-35
2021/06/29 12:50:29;;;;;;;35.65;5.90;;;;;;;;;;5052871;28;20119;-35
2021/06/29 12:52:57;;;;;;;24.58;5.30;;;;;;;;;;5050632;28;20029;-47
2021/06/29 12:55:26;;;;;;;34.00;6.07;;;;;;;;;;5051947;28;20060;-48
2021/06/29 12:58:10;;;;;;;30.17;5.03;;;;;;;;;;5053020;28;20029;-53
2021/06/29 13:00:43;;;;;;;24.15;5.10;;;;;;;;;;5035032;28;20036;-35
2021/06/29 13:03:11;;;;;;;32.70;6.85;;;;;;;;;;5052777;28;20543;-43
2021/06/29 13:05:38;;;;;;;31.63;5.15;;;;;;;;;;5050673;28;20033;-46
2021/06/29 13:08:09;;;;;;;30.48;5.07;;;;;;;;;;5053030;28;20052;-47
2021/06/29 13:10:36;;;;;;;26.70;4.93;;;;;;;;;;5043182;28;20078;-47
2021/06/29 13:13:19;;;;;;;46.13;4.93;;;;;;;;;;5052163;28;20039;-57
2021/06/29 13:15:47;;;;;;;24.95;5.20;;;;;;;;;;5050820;28;21135;-54
2021/06/29 13:18:14;;;;;;;27.23;4.70;;;;;;;;;;5050899;28;20429;-41
2021/06/29 13:20:41;;;;;;;26.05;5.50;;;;;;;;;;5052612;28;20041;-45
2021/06/29 13:23:10;;;;;;;28.73;4.90;;;;;;;;;;5052794;28;20616;-47
2021/06/29 13:25:43;;;;;;;22.77;5.57;;;;;;;;;;5051652;28;20499;-44
2021/06/29 13:28:12;;;;;;;22.70;3.50;;;;;;;;;;5051714;28;20177;-37
2021/06/29 13:30:39;;;;;;;22.10;3.80;;;;;;;;;;5051160;28;20120;-35
2021/06/29 13:33:07;;;;;;;20.77;3.53;;;;;;;;;;5052498;28;20016;-37
2021/06/29 13:35:35;;;;;;;20.38;4.30;;;;;;;;;;5051076;28;20028;-40
2021/06/29 13:38:03;;;;;;;16.98;3.25;;;;;;;;;;5049469;28;20392;-40
2021/06/29 13:40:35;;;;;;;14.82;3.55;;;;;;;;;;5050115;28;20064;-43
2021/06/29 13:43:13;;;;;;;19.58;3.40;;;;;;;;;;5065871;28;20041;-44
2021/06/29 13:45:42;;;;;;;13.68;3.25;;;;;;;;;;5072299;28;20087;-53
2021/06/29 13:48:10;;;;;;;27.42;2.85;;;;;;;;;;5072406;28;20024;-44
2021/06/29 13:50:40;;;;;;;14.98;2.45;;;;;;;;;;5071862;28;20051;-38
2021/06/29 13:53:07;;;;;;;13.45;2.65;;;;;;;;;;5052228;28;20395;-53
2021/06/29 13:55:36;;;;;;;8.93;1.77;;;;;;;;;;5072110;28;20021;-49
2021/06/29 13:58:19;;;;;;;11.45;2.20;;;;;;;;;;5071566;28;20021;-53
2021/06/29 14:00:47;;;;;;;9.82;2.15;;;;;;;;;;5052098;28;20484;-39
2021/06/29 14:03:19;;;;;;;9.10;1.67;;;;;;;;;;5032879;28;20480;-48
2021/06/29 14:05:47;;;;;;;9.30;2.10;;;;;;;;;;5033417;28;20380;-45
2021/06/29 14:08:18;;;;;;;11.73;2.42;;;;;;;;;;5051757;28;20278;-41
2021/06/29 14:10:47;;;;;;;11.50;1.45;;;;;;;;;;5052073;28;20021;-49
2021/06/29 14:13:14;;;;;;;13.90;1.30;;;;;;;;;;5051807;28;20025;-38
2021/06/29 14:15:42;;;;;;;10.43;2.05;;;;;;;;;;5050150;28;20028;-44
2021/06/29 14:18:09;;;;;;;9.73;1.85;;;;;;;;;;5051207;28;20027;-51
2021/06/29 14:20:36;;;;;;;28.02;3.17;;;;;;;;;;5055282;28;20032;-35
2021/06/29 14:23:03;;;;;;;34.83;3.92;;;;;;;;;;5070708;28;20016;-34
2021/06/29 14:25:30;;;;;;;30.38;3.15;;;;;;;;;;5058119;28;20036;-35
2021/06/29 14:27:57;;;;;;;16.02;2.47;;;;;;;;;;5054575;28;20021;-62
2021/06/29 14:30:25;;;;;;;31.27;3.80;;;;;;;;;;5062254;28;20055;-35
2021/06/29 14:32:57;;;;;;;22.45;3.55;;;;;;;;;;5060682;28;20415;-41
2021/06/29 14:35:25;;;;;;;20.40;2.15;;;;;;;;;;5069855;28;20044;-37
2021/06/29 14:37:53;;;;;;;14.82;2.60;;;;;;;;;;5085412;28;20031;-57
2021/06/29 14:40:20;;;;;;;15.88;2.35;;;;;;;;;;5059979;28;20028;-45
2021/06/29 14:42:48;;;;;;;11.88;1.80;;;;;;;;;;5082690;28;20044;-41
2021/06/29 14:45:18;;;;;;;12.27;2.10;;;;;;;;;;5081126;28;20394;-52
2021/06/29 14:47:46;;;;;;;14.65;2.30;;;;;;;;;;5081722;28;20087;-44
2021/06/29 14:50:14;;;;;;;12.77;2.15;;;;;;;;;;5082865;28;20028;-40
2021/06/29 14:52:41;;;;;;;11.57;2.13;;;;;;;;;;5072404;28;20479;-49